createdAt,value
2018-09-03T00:00:01.246Z,8.17
2018-09-03T00:02:33.413Z,5.90
2018-09-03T00:05:05.444Z,6.10
2018-09-03T00:07:37.193Z,7.93
2018-09-03T00:10:08.981Z,10.80
2018-09-03T00:12:40.733Z,10.07
2018-09-03T00:15:12.570Z,8.67
2018-09-03T00:17:44.332Z,7.93
2018-09-03T00:20:15.992Z,7.17
2018-09-03T00:22:47.746Z,7.73
2018-09-03T00:25:19.638Z,9.60
2018-09-03T00:27:51.289Z,7.67
2018-09-03T00:30:23.070Z,7.63
2018-09-03T00:32:59.501Z,6.63
2018-09-03T00:35:35.947Z,7.17
2018-09-03T00:38:12.858Z,7.13
2018-09-03T00:40:49.548Z,6.57
2018-09-03T00:43:26.237Z,6.23
2018-09-03T00:46:02.802Z,6.37
2018-09-03T00:48:34.428Z,6.77
2018-09-03T00:51:06.197Z,6.13
2018-09-03T00:53:37.949Z,6.80
2018-09-03T00:56:09.742Z,6.57
2018-09-03T00:58:41.379Z,5.27
2018-09-03T01:01:13.259Z,7.03
2018-09-03T01:03:44.877Z,6.00
2018-09-03T01:06:16.553Z,7.20
2018-09-03T01:08:48.535Z,5.67
2018-09-03T01:11:20.267Z,5.73
2018-09-03T01:13:51.933Z,5.50
2018-09-03T01:16:23.812Z,5.83
2018-09-03T01:18:57.263Z,5.53
2018-09-03T01:21:28.946Z,5.40
2018-09-03T01:24:00.674Z,5.00
2018-09-03T01:26:32.349Z,5.93
2018-09-03T01:29:03.917Z,5.40
2018-09-03T01:31:35.957Z,7.10
2018-09-03T01:34:07.863Z,5.30
2018-09-03T01:36:39.492Z,6.10
2018-09-03T01:39:11.434Z,8.50
2018-09-03T01:41:43.030Z,10.87
2018-09-03T01:44:14.669Z,7.87
2018-09-03T01:46:46.580Z,8.73
2018-09-03T01:49:18.369Z,8.47
2018-09-03T01:51:50.281Z,7.27
2018-09-03T01:54:21.970Z,7.07
2018-09-03T01:56:53.797Z,7.83
2018-09-03T01:59:25.657Z,7.30
2018-09-03T02:01:57.297Z,6.83
2018-09-03T02:04:29.234Z,9.43
2018-09-03T02:07:00.901Z,6.87
2018-09-03T02:09:32.466Z,9.67
2018-09-03T02:12:04.453Z,8.53
2018-09-03T02:14:36.121Z,8.60
2018-09-03T02:17:08.057Z,7.53
2018-09-03T02:19:39.893Z,10.70
2018-09-03T02:22:11.773Z,11.60
2018-09-03T02:24:43.417Z,13.17
2018-09-03T02:27:15.186Z,10.47
2018-09-03T02:29:46.928Z,11.33
2018-09-03T02:32:18.604Z,9.83
2018-09-03T02:34:50.268Z,11.87
2018-09-03T02:37:22.094Z,9.43
2018-09-03T02:39:53.986Z,9.37
2018-09-03T02:42:25.645Z,7.33
2018-09-03T02:44:57.374Z,7.60
2018-09-03T02:47:29.283Z,8.50
2018-09-03T02:50:01.023Z,7.43
2018-09-03T02:52:32.908Z,7.00
2018-09-03T02:55:04.756Z,11.83
2018-09-03T02:57:36.388Z,11.93
2018-09-03T03:00:08.266Z,8.27
2018-09-03T03:02:40.103Z,9.53
2018-09-03T03:05:11.888Z,10.83
2018-09-03T03:07:43.637Z,10.93
2018-09-03T03:10:15.478Z,9.67
2018-09-03T03:12:47.234Z,12.53
2018-09-03T03:15:19.000Z,12.67
2018-09-03T03:17:50.650Z,14.33
2018-09-03T03:20:22.661Z,9.17
2018-09-03T03:22:54.397Z,9.87
2018-09-03T03:25:26.256Z,11.33
2018-09-03T03:27:57.989Z,11.97
2018-09-03T03:30:29.850Z,9.93
2018-09-03T03:33:01.547Z,12.70
2018-09-03T03:35:33.275Z,10.13
2018-09-03T03:38:04.745Z,12.17
2018-09-03T03:40:36.473Z,9.63
2018-09-03T03:43:08.273Z,7.97
2018-09-03T03:45:40.147Z,8.30
2018-09-03T03:48:11.787Z,8.23
2018-09-03T03:50:43.518Z,8.30
2018-09-03T03:53:15.181Z,10.67
2018-09-03T03:55:46.859Z,11.50
2018-09-03T03:58:18.586Z,10.00
2018-09-03T04:00:50.393Z,9.40
2018-09-03T04:03:22.118Z,8.37
2018-09-03T04:05:53.974Z,7.63
2018-09-03T04:08:25.778Z,7.33
2018-09-03T04:10:57.404Z,11.30
2018-09-03T04:13:30.521Z,7.57
2018-09-03T04:16:02.233Z,11.80
2018-09-03T04:18:34.087Z,7.67
2018-09-03T04:21:06.049Z,7.97
2018-09-03T04:23:37.862Z,7.20
2018-09-03T04:26:09.723Z,6.50
2018-09-03T04:28:41.398Z,9.87
2018-09-03T04:31:13.099Z,11.00
2018-09-03T04:33:44.874Z,15.67
2018-09-03T04:36:16.735Z,13.90
2018-09-03T04:38:48.439Z,10.03
2018-09-03T04:41:20.234Z,9.63
2018-09-03T04:43:52.137Z,13.50
2018-09-03T04:46:23.813Z,11.93
2018-09-03T04:48:55.533Z,11.20
2018-09-03T04:51:27.365Z,9.33
2018-09-03T04:53:59.037Z,13.07
2018-09-03T04:56:30.909Z,11.53
2018-09-03T04:59:02.646Z,8.87
2018-09-03T05:01:34.940Z,13.43
2018-09-03T05:04:06.870Z,10.93
2018-09-03T05:06:38.657Z,10.00
2018-09-03T05:09:10.326Z,10.97
2018-09-03T05:11:42.164Z,15.37
2018-09-03T05:14:14.167Z,10.43
2018-09-03T05:16:45.781Z,11.33
2018-09-03T05:19:17.531Z,7.63
2018-09-03T05:21:49.294Z,7.83
2018-09-03T05:24:20.960Z,8.97
2018-09-03T05:26:52.843Z,8.70
2018-09-03T05:29:25.166Z,9.57
2018-09-03T05:31:57.261Z,11.60
2018-09-03T05:34:28.942Z,10.63
2018-09-03T05:37:00.597Z,12.80
2018-09-03T05:39:32.240Z,9.07
2018-09-03T05:42:03.896Z,9.50
2018-09-03T05:44:35.634Z,8.57
2018-09-03T05:47:08.004Z,8.33
2018-09-03T05:49:39.797Z,8.07
2018-09-03T05:52:11.679Z,6.30
2018-09-03T05:54:43.317Z,7.37
2018-09-03T05:57:15.195Z,8.97
2018-09-03T05:59:46.955Z,9.27
2018-09-03T06:02:18.690Z,7.73
2018-09-03T06:04:50.768Z,7.77
2018-09-03T06:07:22.533Z,10.50
2018-09-03T06:09:54.178Z,12.27
2018-09-03T06:12:26.224Z,11.33
2018-09-03T06:14:58.061Z,8.20
2018-09-03T06:17:29.753Z,7.43
2018-09-03T06:20:01.412Z,7.20
2018-09-03T06:22:33.145Z,9.23
2018-09-03T06:25:05.058Z,8.53
2018-09-03T06:27:36.689Z,12.13
2018-09-03T06:30:08.777Z,10.07
2018-09-03T06:32:40.813Z,7.23
2018-09-03T06:35:12.474Z,7.80
2018-09-03T06:37:44.133Z,13.80
2018-09-03T06:40:16.014Z,7.53
2018-09-03T06:42:47.639Z,6.93
2018-09-03T06:45:19.365Z,12.70
2018-09-03T06:47:51.178Z,6.60
2018-09-03T06:50:22.886Z,5.97
2018-09-03T06:52:54.858Z,5.63
2018-09-03T06:55:26.681Z,6.63
2018-09-03T06:57:58.407Z,5.70
2018-09-03T07:00:30.244Z,12.60
2018-09-03T07:03:02.108Z,13.27
2018-09-03T07:05:33.918Z,11.90
2018-09-03T07:08:05.757Z,7.67
2018-09-03T07:10:37.580Z,9.80
2018-09-03T07:13:09.470Z,12.50
2018-09-03T07:15:41.229Z,9.90
2018-09-03T07:18:13.066Z,9.00
2018-09-03T07:20:44.925Z,8.47
2018-09-03T07:23:16.609Z,8.93
2018-09-03T07:25:48.277Z,7.47
2018-09-03T07:28:20.040Z,7.43
2018-09-03T07:30:51.687Z,7.40
2018-09-03T07:33:23.420Z,8.73
2018-09-03T07:35:55.154Z,5.77
2018-09-03T07:38:27.354Z,5.90
2018-09-03T07:40:59.112Z,6.27
2018-09-03T07:43:31.015Z,7.10
2018-09-03T07:46:02.666Z,8.87
2018-09-03T07:48:34.410Z,9.63
2018-09-03T07:51:06.360Z,7.90
2018-09-03T07:53:38.141Z,6.80
2018-09-03T07:56:09.777Z,6.40
2018-09-03T07:58:41.517Z,6.40
2018-09-03T08:01:13.404Z,6.43
2018-09-03T08:03:45.162Z,5.50
2018-09-03T08:06:16.885Z,4.90
2018-09-03T08:08:48.704Z,4.87
2018-09-03T08:11:20.459Z,4.13
2018-09-03T08:13:52.175Z,5.07
2018-09-03T08:16:24.190Z,5.90
2018-09-03T08:18:55.865Z,4.83
2018-09-03T08:21:27.753Z,4.40
2018-09-03T08:23:59.516Z,4.27
2018-09-03T08:26:31.325Z,6.03
2018-09-03T08:29:02.963Z,4.30
2018-09-03T08:31:34.844Z,8.97
2018-09-03T08:34:06.482Z,4.43
2018-09-03T08:36:38.206Z,4.27
2018-09-03T08:39:09.962Z,3.87
2018-09-03T08:41:41.649Z,4.13
2018-09-03T08:44:13.335Z,3.90
2018-09-03T08:46:45.063Z,5.27
2018-09-03T08:49:16.820Z,5.33
2018-09-03T08:51:48.583Z,11.20
2018-09-03T08:54:20.374Z,6.37
2018-09-03T08:56:52.256Z,4.47
2018-09-03T08:59:23.909Z,6.63
2018-09-03T09:01:55.745Z,5.30
2018-09-03T09:04:27.647Z,5.17
2018-09-03T09:06:59.422Z,5.27
2018-09-03T09:09:31.282Z,6.07
2018-09-03T09:12:03.192Z,11.43
2018-09-03T09:14:35.842Z,12.97
2018-09-03T09:17:07.808Z,10.80
2018-09-03T09:19:39.581Z,14.53
2018-09-03T09:22:11.244Z,14.47
2018-09-03T09:24:43.067Z,15.20
2018-09-03T09:27:14.864Z,14.13
2018-09-03T09:29:46.733Z,15.67
2018-09-03T09:32:18.614Z,11.70
2018-09-03T09:34:50.505Z,12.70
2018-09-03T09:37:22.265Z,13.03
2018-09-03T09:39:53.973Z,10.53
2018-09-03T09:42:25.786Z,10.57
2018-09-03T09:44:57.580Z,15.03
2018-09-03T09:47:29.230Z,14.57
2018-09-03T09:50:01.281Z,9.77
2018-09-03T09:52:33.369Z,9.97
2018-09-03T09:55:05.406Z,9.37
2018-09-03T09:57:37.065Z,7.07
2018-09-03T10:00:10.999Z,9.27
2018-09-03T10:02:42.797Z,8.97
2018-09-03T10:05:14.636Z,10.57
2018-09-03T10:07:46.423Z,11.57
2018-09-03T10:10:18.256Z,9.90
2018-09-03T10:12:50.066Z,8.67
2018-09-03T10:15:22.079Z,8.10
2018-09-03T10:17:53.694Z,8.00
2018-09-03T10:20:25.356Z,8.53
2018-09-03T10:22:57.209Z,9.33
2018-09-03T10:25:28.876Z,7.37
2018-09-03T10:28:00.546Z,7.23
2018-09-03T10:30:32.381Z,6.80
2018-09-03T10:33:04.166Z,8.20
2018-09-03T10:35:35.926Z,5.53
2018-09-03T10:38:07.593Z,5.77
2018-09-03T10:40:39.441Z,9.37
2018-09-03T10:43:11.317Z,12.53
2018-09-03T10:45:46.929Z,11.20
2018-09-03T10:48:18.753Z,10.23
2018-09-03T10:50:50.499Z,15.47
2018-09-03T10:53:22.114Z,11.70
2018-09-03T10:55:53.820Z,16.77
2018-09-03T10:58:25.756Z,14.27
2018-09-03T11:00:57.402Z,13.13
2018-09-03T11:03:29.165Z,13.33
2018-09-03T11:06:00.933Z,10.53
2018-09-03T11:08:32.585Z,12.13
2018-09-03T11:11:04.352Z,10.63
2018-09-03T11:13:36.117Z,9.57
2018-09-03T11:16:07.942Z,12.63
2018-09-03T11:18:39.729Z,16.33
2018-09-03T11:21:11.447Z,16.47
2018-09-03T11:23:43.135Z,15.07
2018-09-03T11:26:14.745Z,13.63
2018-09-03T11:28:46.443Z,17.17
2018-09-03T11:31:18.098Z,15.00
2018-09-03T11:33:49.883Z,12.97
2018-09-03T11:36:21.448Z,13.23
2018-09-03T11:38:53.158Z,11.80
2018-09-03T11:41:25.019Z,13.50
2018-09-03T11:43:56.673Z,10.40
2018-09-03T11:46:28.459Z,7.63
2018-09-03T11:49:00.232Z,7.43
2018-09-03T11:51:31.851Z,7.23
2018-09-03T11:54:03.537Z,7.40
2018-09-03T11:56:35.254Z,5.53
2018-09-03T11:59:07.086Z,5.80
2018-09-03T12:01:38.811Z,5.80
2018-09-03T12:04:10.690Z,5.40
2018-09-03T12:06:42.418Z,8.87
2018-09-03T12:09:14.165Z,5.57
2018-09-03T12:11:46.010Z,5.63
2018-09-03T12:14:56.529Z,6.40
2018-09-03T12:17:28.153Z,6.10
2018-09-03T12:19:59.814Z,6.60
2018-09-03T12:22:31.551Z,5.87
2018-09-03T12:25:03.229Z,5.70
2018-09-03T12:27:35.034Z,4.97
2018-09-03T12:30:07.241Z,6.40
2018-09-03T12:32:39.281Z,4.90
2018-09-03T12:35:11.069Z,5.67
2018-09-03T12:37:42.974Z,5.93
2018-09-03T12:40:14.616Z,5.90
2018-09-03T12:42:46.380Z,7.27
2018-09-03T12:45:18.125Z,5.70
2018-09-03T12:47:49.851Z,6.87
2018-09-03T12:50:21.718Z,7.87
2018-09-03T12:52:53.401Z,7.60
2018-09-03T12:55:25.128Z,6.23
2018-09-03T12:57:56.798Z,5.57
2018-09-03T13:00:28.473Z,4.93
2018-09-03T13:03:00.444Z,5.20
2018-09-03T13:05:32.271Z,5.03
2018-09-03T13:08:03.829Z,4.53
2018-09-03T13:10:35.582Z,6.60
2018-09-03T13:13:07.456Z,8.40
2018-09-03T13:15:39.244Z,9.97
2018-09-03T13:18:10.908Z,9.00
2018-09-03T13:20:42.818Z,7.00
2018-09-03T13:23:14.615Z,5.67
2018-09-03T13:25:46.442Z,5.20
2018-09-03T13:28:18.202Z,7.93
2018-09-03T13:30:57.826Z,11.07
2018-09-03T13:33:29.603Z,9.87
2018-09-03T13:36:01.516Z,11.37
2018-09-03T13:38:33.480Z,13.33
2018-09-03T13:41:05.432Z,9.40
2018-09-03T13:43:37.236Z,7.07
2018-09-03T13:46:09.070Z,8.87
2018-09-03T13:48:40.576Z,6.67
2018-09-03T13:51:12.256Z,5.30
2018-09-03T13:53:43.982Z,7.10
2018-09-03T13:56:15.662Z,5.90
2018-09-03T13:58:47.429Z,5.57
2018-09-03T14:01:19.209Z,8.33
2018-09-03T14:03:51.114Z,7.03
2018-09-03T14:06:22.821Z,6.90
2018-09-03T14:08:54.538Z,5.40
2018-09-03T14:11:26.197Z,5.20
2018-09-03T14:13:57.903Z,4.90
2018-09-03T14:16:29.610Z,6.63
2018-09-03T14:19:01.301Z,9.60
2018-09-03T14:21:33.168Z,10.60
2018-09-03T14:24:05.000Z,7.43
2018-09-03T14:26:37.002Z,5.93
2018-09-03T14:29:08.830Z,5.07
2018-09-03T14:31:40.623Z,7.00
2018-09-03T14:34:12.259Z,5.73
2018-09-03T14:36:43.989Z,4.63
2018-09-03T14:39:15.775Z,4.17
2018-09-03T14:41:47.506Z,5.93
2018-09-03T14:44:19.279Z,8.10
2018-09-03T14:46:51.055Z,9.17
2018-09-03T14:49:22.787Z,7.10
2018-09-03T14:51:54.446Z,6.33
2018-09-03T14:54:26.125Z,7.13
2018-09-03T14:56:58.049Z,7.80
2018-09-03T14:59:29.926Z,6.00
2018-09-03T15:02:01.889Z,5.90
2018-09-03T15:04:33.685Z,5.10
2018-09-03T15:07:05.527Z,6.00
2018-09-03T15:09:37.364Z,8.17
2018-09-03T15:12:09.081Z,7.67
2018-09-03T15:14:40.851Z,7.07
2018-09-03T15:17:12.743Z,7.40
2018-09-03T15:19:44.417Z,7.40
2018-09-03T15:22:16.086Z,5.60
2018-09-03T15:24:47.816Z,5.40
2018-09-03T15:27:19.487Z,5.67
2018-09-03T15:29:51.152Z,4.53
2018-09-03T15:32:22.939Z,3.20
2018-09-03T15:34:54.697Z,4.30
2018-09-03T15:37:26.438Z,5.13
2018-09-03T15:39:58.203Z,6.90
2018-09-03T15:42:29.852Z,5.13
2018-09-03T15:45:01.691Z,4.90
2018-09-03T15:47:33.657Z,4.13
2018-09-03T15:50:05.506Z,3.90
2018-09-03T15:52:37.181Z,4.70
2018-09-03T15:55:09.065Z,4.03
2018-09-03T15:57:40.886Z,5.83
2018-09-03T16:00:12.759Z,6.03
2018-09-03T16:02:44.429Z,5.93
2018-09-03T16:05:16.404Z,6.00
2018-09-03T16:07:48.356Z,5.60
2018-09-03T16:10:20.301Z,4.80
2018-09-03T16:12:52.052Z,4.30
2018-09-03T16:15:23.714Z,3.53
2018-09-03T16:17:55.677Z,3.37
2018-09-03T16:20:27.541Z,5.77
2018-09-03T16:22:59.223Z,4.80
2018-09-03T16:25:31.105Z,3.40
2018-09-03T16:28:03.057Z,2.80
2018-09-03T16:30:34.701Z,2.77
2018-09-03T16:33:06.637Z,2.90
2018-09-03T16:35:38.399Z,2.60
2018-09-03T16:38:10.081Z,2.70
2018-09-03T16:40:42.015Z,2.60
2018-09-03T16:43:13.821Z,2.57
2018-09-03T16:45:45.557Z,2.20
2018-09-03T16:48:17.318Z,2.40
2018-09-03T16:50:49.206Z,2.47
2018-09-03T16:53:20.955Z,4.47
2018-09-03T16:55:52.698Z,3.53
2018-09-03T16:58:24.688Z,3.80
2018-09-03T17:00:56.361Z,2.83
2018-09-03T17:03:28.087Z,2.93
2018-09-03T17:05:59.817Z,3.70
2018-09-03T17:08:31.491Z,3.73
2018-09-03T17:11:03.260Z,4.47
2018-09-03T17:13:35.163Z,5.90
2018-09-03T17:16:06.934Z,3.93
2018-09-03T17:18:38.628Z,5.00
2018-09-03T17:21:10.490Z,5.30
2018-09-03T17:23:42.325Z,5.90
2018-09-03T17:26:14.025Z,11.23
2018-09-03T17:28:45.796Z,4.47
2018-09-03T17:31:17.615Z,3.33
2018-09-03T17:33:49.414Z,3.57
2018-09-03T17:36:21.046Z,3.33
2018-09-03T17:38:52.889Z,3.20
2018-09-03T17:41:24.777Z,4.13
2018-09-03T17:43:56.504Z,5.80
2018-09-03T17:46:28.177Z,4.50
2018-09-03T17:48:59.849Z,4.60
2018-09-03T17:51:31.727Z,4.10
2018-09-03T17:54:03.346Z,4.90
2018-09-03T17:56:35.129Z,5.00
2018-09-03T17:59:07.264Z,4.63
2018-09-03T18:01:39.125Z,4.60
2018-09-03T18:04:11.189Z,6.00
2018-09-03T18:06:43.000Z,5.60
2018-09-03T18:09:14.645Z,5.67
2018-09-03T18:11:46.413Z,6.87
2018-09-03T18:14:18.142Z,7.97
2018-09-03T18:16:49.808Z,6.60
2018-09-03T18:19:21.639Z,6.30
2018-09-03T18:21:53.485Z,5.17
2018-09-03T18:24:25.185Z,5.80
2018-09-03T18:26:57.993Z,5.40
2018-09-03T18:29:29.824Z,5.07
2018-09-03T18:32:01.661Z,5.10
2018-09-03T18:34:33.522Z,7.33
2018-09-03T18:37:05.242Z,5.73
2018-09-03T18:39:37.069Z,6.10
2018-09-03T18:42:08.903Z,4.90
2018-09-03T18:44:40.791Z,4.87
2018-09-03T18:47:12.537Z,5.10
2018-09-03T18:49:44.384Z,4.60
2018-09-03T18:52:16.405Z,5.93
2018-09-03T18:54:48.030Z,6.47
2018-09-03T18:57:19.695Z,8.40
2018-09-03T18:59:51.657Z,11.10
2018-09-03T19:02:23.639Z,8.93
2018-09-03T19:04:55.365Z,7.83
2018-09-03T19:07:27.034Z,6.23
2018-09-03T19:09:59.200Z,6.60
2018-09-03T19:12:30.931Z,7.17
2018-09-03T19:15:02.636Z,5.43
2018-09-03T19:17:34.346Z,6.43
2018-09-03T19:20:06.165Z,6.83
2018-09-03T19:22:37.889Z,6.10
2018-09-03T19:25:09.834Z,6.47
2018-09-03T19:27:41.692Z,8.13
2018-09-03T19:30:13.473Z,5.60
2018-09-03T19:32:45.224Z,6.90
2018-09-03T19:35:18.062Z,7.53
2018-09-03T19:37:49.813Z,8.40
2018-09-03T19:40:21.614Z,9.43
2018-09-03T19:42:53.284Z,8.20
2018-09-03T19:45:24.953Z,7.33
2018-09-03T19:47:56.798Z,8.57
2018-09-03T19:50:28.468Z,7.63
2018-09-03T19:53:00.121Z,9.10
2018-09-03T19:55:31.967Z,9.30
2018-09-03T19:58:03.638Z,10.83
2018-09-03T20:00:35.301Z,11.90
2018-09-03T20:03:07.240Z,9.70
2018-09-03T20:05:39.025Z,7.33
2018-09-03T20:08:10.840Z,6.53
2018-09-03T20:10:42.632Z,5.90
2018-09-03T20:13:14.478Z,6.40
2018-09-03T20:15:46.174Z,11.77
2018-09-03T20:18:17.831Z,12.80
2018-09-03T20:20:49.700Z,8.63
2018-09-03T20:23:21.423Z,8.50
2018-09-03T20:25:53.426Z,6.63
2018-09-03T20:28:26.351Z,6.67
2018-09-03T20:30:58.230Z,7.73
2018-09-03T20:33:29.910Z,7.17
2018-09-03T20:36:01.643Z,5.50
2018-09-03T20:38:33.323Z,7.10
2018-09-03T20:41:05.158Z,7.73
2018-09-03T20:43:36.941Z,5.80
2018-09-03T20:46:08.637Z,6.17
2018-09-03T20:48:40.543Z,5.03
2018-09-03T20:51:12.201Z,6.83
2018-09-03T20:53:43.952Z,7.10
2018-09-03T20:56:15.759Z,8.63
2018-09-03T20:58:47.445Z,10.70
2018-09-03T21:01:19.258Z,8.63
2018-09-03T21:03:51.147Z,6.63
2018-09-03T21:06:22.751Z,5.70
2018-09-03T21:08:54.525Z,8.03
2018-09-03T21:11:26.569Z,6.60
2018-09-03T21:13:58.385Z,6.10
2018-09-03T21:16:29.998Z,7.93
2018-09-03T21:19:01.764Z,5.70
2018-09-03T21:21:33.553Z,5.30
2018-09-03T21:24:05.280Z,5.10
2018-09-03T21:26:36.937Z,5.17
2018-09-03T21:29:08.786Z,4.80
2018-09-03T21:31:40.460Z,5.00
2018-09-03T21:34:12.115Z,4.57
2018-09-03T21:36:44.086Z,8.27
2018-09-03T21:39:15.947Z,7.53
2018-09-03T21:41:47.701Z,4.97
2018-09-03T21:44:19.457Z,7.93
2018-09-03T21:46:51.226Z,6.20
2018-09-03T21:49:22.993Z,6.60
2018-09-03T21:51:54.837Z,8.03
2018-09-03T21:54:26.624Z,7.10
2018-09-03T21:56:58.241Z,6.90
2018-09-03T21:59:30.013Z,7.00
2018-09-03T22:02:01.749Z,5.70
2018-09-03T22:04:33.413Z,5.10
2018-09-03T22:07:05.168Z,6.00
2018-09-03T22:09:37.028Z,6.73
2018-09-03T22:12:08.913Z,4.67
2018-09-03T22:14:40.778Z,4.57
2018-09-03T22:17:12.638Z,8.23
2018-09-03T22:19:44.469Z,5.07
2018-09-03T22:22:16.295Z,6.33
2018-09-03T22:24:48.246Z,4.73
2018-09-03T22:27:20.181Z,6.00
2018-09-03T22:29:51.921Z,5.70
2018-09-03T22:32:23.697Z,5.63
2018-09-03T22:34:55.461Z,8.37
2018-09-03T22:37:27.196Z,6.20
2018-09-03T22:39:58.865Z,5.37
2018-09-03T22:42:30.737Z,7.23
2018-09-03T22:45:02.570Z,5.70
2018-09-03T22:47:34.325Z,5.73
2018-09-03T22:50:06.237Z,6.80
2018-09-03T22:52:37.983Z,5.73
2018-09-03T22:55:09.818Z,7.83
2018-09-03T22:57:41.600Z,6.73
2018-09-03T23:00:13.250Z,7.87
2018-09-03T23:02:48.562Z,5.50
2018-09-03T23:05:20.437Z,6.87
2018-09-03T23:07:52.401Z,6.53
2018-09-03T23:10:24.065Z,5.00
2018-09-03T23:12:57.712Z,7.07
2018-09-03T23:15:29.555Z,6.27
2018-09-03T23:18:02.259Z,6.43
2018-09-03T23:20:33.981Z,6.80
2018-09-03T23:23:05.817Z,6.60
2018-09-03T23:25:37.619Z,7.73
2018-09-03T23:28:09.263Z,7.57
2018-09-03T23:30:41.001Z,6.77
2018-09-03T23:33:13.122Z,6.73
2018-09-03T23:35:44.781Z,4.70
2018-09-03T23:38:16.569Z,6.37
2018-09-03T23:40:48.248Z,6.33
2018-09-03T23:43:20.014Z,5.37
2018-09-03T23:45:51.853Z,6.37
2018-09-03T23:48:23.713Z,7.00
2018-09-03T23:50:55.618Z,7.37
2018-09-03T23:53:27.467Z,6.47
2018-09-03T23:55:59.374Z,6.10
2018-09-03T23:58:31.262Z,5.33
